createdAt,value
2022-11-27T00:00:06.158Z,87.65
2022-11-27T00:03:01.389Z,87.78
2022-11-27T00:10:26.898Z,104.43
2022-11-27T00:12:55.679Z,85.85
2022-11-27T00:15:24.016Z,88.93
2022-11-27T00:17:52.619Z,83.03
2022-11-27T00:20:20.959Z,87.70
2022-11-27T00:22:49.893Z,82.65
2022-11-27T00:25:18.318Z,85.10
2022-11-27T00:27:47.243Z,84.85
2022-11-27T00:30:15.714Z,84.55
2022-11-27T00:32:45.030Z,82.82
2022-11-27T00:35:13.525Z,81.05
2022-11-27T00:37:42.120Z,79.63
2022-11-27T00:40:10.934Z,81.13
2022-11-27T00:42:39.693Z,80.50
2022-11-27T00:45:08.533Z,85.63
2022-11-27T00:47:37.387Z,81.55
2022-11-27T00:50:06.541Z,79.07
2022-11-27T00:52:35.293Z,75.15
2022-11-27T00:55:04.075Z,82.18
2022-11-27T00:57:32.861Z,83.70
2022-11-27T01:00:01.174Z,79.97
2022-11-27T01:02:30.113Z,84.32
2022-11-27T01:04:58.663Z,76.18
2022-11-27T01:07:27.464Z,72.93
2022-11-27T01:09:55.725Z,81.25
2022-11-27T01:12:24.614Z,87.47
2022-11-27T01:14:52.838Z,85.10
2022-11-27T01:17:21.922Z,79.72
2022-11-27T01:19:50.391Z,84.07
2022-11-27T01:22:19.138Z,79.80
2022-11-27T01:24:47.468Z,76.45
2022-11-27T01:27:16.505Z,80.70
2022-11-27T01:29:45.692Z,74.50
2022-11-27T01:32:14.353Z,81.95
2022-11-27T01:34:42.794Z,76.00
2022-11-27T01:37:11.493Z,70.35
2022-11-27T01:39:39.948Z,75.05
2022-11-27T01:42:11.322Z,73.95
2022-11-27T01:44:50.389Z,69.40
2022-11-27T01:47:31.849Z,72.97
2022-11-27T01:50:07.584Z,70.93
2022-11-27T01:52:41.505Z,76.85
2022-11-27T01:55:20.439Z,80.03
2022-11-27T01:57:54.060Z,70.97
2022-11-27T02:00:23.447Z,68.72
2022-11-27T02:02:52.433Z,75.10
2022-11-27T02:05:25.473Z,81.32
2022-11-27T02:07:55.122Z,82.50
2022-11-27T02:10:52.866Z,83.45
2022-11-27T02:13:33.036Z,78.47
2022-11-27T02:16:21.734Z,81.88
2022-11-27T02:19:32.234Z,78.43
2022-11-27T02:22:08.975Z,78.18
2022-11-27T02:25:01.053Z,77.32
2022-11-27T02:28:03.354Z,75.53
2022-11-27T02:30:37.038Z,77.78
2022-11-27T02:33:11.033Z,76.30
2022-11-27T02:35:51.808Z,76.07
2022-11-27T02:38:25.698Z,83.30
2022-11-27T02:41:21.704Z,76.03
2022-11-27T02:43:52.563Z,76.05
2022-11-27T02:46:21.829Z,78.33
2022-11-27T02:48:53.865Z,69.22
2022-11-27T02:51:25.532Z,76.25
2022-11-27T02:54:06.915Z,74.18
2022-11-27T02:56:35.964Z,72.32
2022-11-27T02:59:10.167Z,73.97
2022-11-27T03:05:07.023Z,78.20
2022-11-27T03:07:53.192Z,77.57
2022-11-27T03:10:40.596Z,81.35
2022-11-27T03:13:09.764Z,75.65
2022-11-27T03:15:53.226Z,77.68
2022-11-27T03:18:49.203Z,74.90
2022-11-27T03:21:34.419Z,82.32
2022-11-27T03:24:03.751Z,74.97
2022-11-27T03:26:32.287Z,73.50
2022-11-27T03:29:03.664Z,73.18
2022-11-27T03:31:32.241Z,74.90
2022-11-27T03:34:01.980Z,75.20
2022-11-27T03:36:30.236Z,71.97
2022-11-27T03:38:59.243Z,82.57
2022-11-27T03:41:41.913Z,74.43
2022-11-27T03:44:21.437Z,74.30
2022-11-27T03:47:35.142Z,78.05
2022-11-27T03:50:32.602Z,77.63
2022-11-27T03:53:10.751Z,72.80
2022-11-27T03:55:52.580Z,71.82
2022-11-27T03:58:33.504Z,71.57
2022-11-27T04:01:05.631Z,71.83
2022-11-27T04:03:34.185Z,75.85
2022-11-27T04:06:03.360Z,72.13
2022-11-27T04:08:31.851Z,65.90
2022-11-27T04:11:00.502Z,78.70
2022-11-27T04:13:28.780Z,79.90
2022-11-27T04:16:01.414Z,80.32
2022-11-27T04:18:30.430Z,77.50
2022-11-27T04:20:59.312Z,74.55
2022-11-27T04:23:27.627Z,70.20
2022-11-27T04:25:56.310Z,70.80
2022-11-27T04:28:24.639Z,75.07
2022-11-27T04:30:53.963Z,69.93
2022-11-27T04:33:22.841Z,78.00
2022-11-27T04:35:51.810Z,71.80
2022-11-27T04:38:21.044Z,73.38
2022-11-27T04:40:53.513Z,76.07
2022-11-27T04:43:21.925Z,73.68
2022-11-27T04:45:50.560Z,70.57
2022-11-27T04:48:20.544Z,77.32
2022-11-27T04:50:58.097Z,69.93
2022-11-27T04:53:26.561Z,65.32
2022-11-27T04:55:55.102Z,78.75
2022-11-27T04:58:23.690Z,77.50
2022-11-27T05:00:52.556Z,71.57
2022-11-27T05:03:21.337Z,75.47
2022-11-27T05:05:57.331Z,74.50
2022-11-27T05:08:26.406Z,75.55
2022-11-27T05:11:12.974Z,77.80
2022-11-27T05:13:43.720Z,74.03
2022-11-27T05:16:12.376Z,77.45
2022-11-27T05:18:41.757Z,76.97
2022-11-27T05:21:10.730Z,76.80
2022-11-27T05:23:38.967Z,89.18
2022-11-27T05:26:07.560Z,78.85
2022-11-27T05:28:36.674Z,80.05
2022-11-27T05:31:05.518Z,80.40
2022-11-27T05:33:33.994Z,79.85
2022-11-27T05:36:02.563Z,84.55
2022-11-27T05:38:30.972Z,78.15
2022-11-27T05:40:59.556Z,70.10
2022-11-27T05:43:27.970Z,80.50
2022-11-27T05:45:56.828Z,83.80
2022-11-27T05:48:25.210Z,76.93
2022-11-27T05:50:53.978Z,71.65
2022-11-27T05:53:22.198Z,77.20
2022-11-27T05:55:51.223Z,76.72
2022-11-27T05:58:19.454Z,75.88
2022-11-27T06:00:49.666Z,72.82
2022-11-27T06:03:17.978Z,72.03
2022-11-27T06:05:46.890Z,74.90
2022-11-27T06:08:15.114Z,75.18
2022-11-27T06:10:43.826Z,70.10
2022-11-27T06:13:13.727Z,64.32
2022-11-27T06:15:42.869Z,75.43
2022-11-27T06:18:12.540Z,69.05
2022-11-27T06:20:44.708Z,67.83
2022-11-27T06:25:44.719Z,67.20
2022-11-27T06:28:13.013Z,71.85
2022-11-27T06:30:41.773Z,71.25
2022-11-27T06:33:10.074Z,71.25
2022-11-27T06:35:39.000Z,73.18
2022-11-27T06:38:07.649Z,68.40
2022-11-27T06:40:36.580Z,69.13
2022-11-27T06:43:04.850Z,65.53
2022-11-27T06:45:33.495Z,65.03
2022-11-27T06:48:02.040Z,63.70
2022-11-27T06:50:31.772Z,72.90
2022-11-27T06:53:00.036Z,67.88
2022-11-27T06:55:28.997Z,66.00
2022-11-27T06:57:57.333Z,66.18
2022-11-27T07:00:26.131Z,60.58
2022-11-27T07:02:56.004Z,60.78
2022-11-27T07:05:25.176Z,61.80
2022-11-27T07:07:54.913Z,66.60
2022-11-27T07:10:23.648Z,57.33
2022-11-27T07:12:51.808Z,57.17
2022-11-27T07:15:21.673Z,52.78
2022-11-27T07:17:50.191Z,56.50
2022-11-27T07:20:19.044Z,57.35
2022-11-27T07:22:47.277Z,59.33
2022-11-27T07:25:16.149Z,64.35
2022-11-27T07:27:44.610Z,72.72
2022-11-27T07:30:14.107Z,73.63
2022-11-27T07:32:42.399Z,64.95
2022-11-27T07:35:11.385Z,71.50
2022-11-27T07:37:39.804Z,66.60
2022-11-27T07:40:08.708Z,91.40
2022-11-27T07:42:38.708Z,102.50
2022-11-27T07:45:09.211Z,79.13
2022-11-27T07:47:56.523Z,73.80
2022-11-27T07:50:25.432Z,66.60
2022-11-27T07:52:55.001Z,68.40
2022-11-27T07:55:24.843Z,71.15
2022-11-27T07:57:53.162Z,72.72
2022-11-27T08:00:25.744Z,74.05
2022-11-27T08:02:54.145Z,55.15
2022-11-27T08:05:23.006Z,55.83
2022-11-27T08:07:51.293Z,49.70
2022-11-27T08:10:45.702Z,50.95
2022-11-27T08:13:14.037Z,54.92
2022-11-27T08:15:46.271Z,49.58
2022-11-27T08:18:24.770Z,44.13
2022-11-27T08:21:00.640Z,51.35
2022-11-27T08:23:29.117Z,63.20
2022-11-27T08:25:58.749Z,61.42
2022-11-27T08:28:27.194Z,43.92
2022-11-27T08:30:58.075Z,49.63
2022-11-27T08:33:29.016Z,46.60
2022-11-27T08:35:57.752Z,43.97
2022-11-27T08:38:28.685Z,45.03
2022-11-27T08:41:02.802Z,46.95
2022-11-27T08:43:39.629Z,51.25
2022-11-27T08:46:08.476Z,54.60
2022-11-27T08:48:40.416Z,43.22
2022-11-27T08:51:14.953Z,43.22
2022-11-27T08:53:46.395Z,42.50
2022-11-27T08:56:22.051Z,44.15
2022-11-27T08:58:51.800Z,43.33
2022-11-27T09:01:24.235Z,46.83
2022-11-27T09:03:53.174Z,43.33
2022-11-27T09:07:04.230Z,40.33
2022-11-27T09:09:45.105Z,40.95
2022-11-27T09:12:41.927Z,46.42
2022-11-27T09:15:40.585Z,39.78
2022-11-27T09:19:34.313Z,45.83
2022-11-27T09:22:02.926Z,47.88
2022-11-27T09:24:37.469Z,35.15
2022-11-27T09:27:08.523Z,38.47
2022-11-27T09:30:12.350Z,39.55
2022-11-27T09:38:20.739Z,34.60
2022-11-27T09:40:52.029Z,39.13
2022-11-27T09:43:27.776Z,36.63
2022-11-27T09:46:01.510Z,39.47
2022-11-27T09:48:40.088Z,38.78
2022-11-27T09:51:21.613Z,37.00
2022-11-27T09:54:01.221Z,38.53
2022-11-27T09:56:36.650Z,41.83
2022-11-27T09:59:15.782Z,40.78
2022-11-27T10:01:56.931Z,43.00
2022-11-27T10:04:51.258Z,42.22
2022-11-27T10:08:10.368Z,39.22
2022-11-27T10:11:18.824Z,43.63
2022-11-27T10:15:22.775Z,39.80
2022-11-27T10:18:07.173Z,42.22
2022-11-27T10:21:16.705Z,37.60
2022-11-27T10:23:56.709Z,37.10
2022-11-27T10:26:56.142Z,36.20
2022-11-27T10:29:39.528Z,39.20
2022-11-27T10:32:47.220Z,39.92
2022-11-27T10:35:25.557Z,38.60
2022-11-27T10:38:03.716Z,36.08
2022-11-27T10:40:44.884Z,34.95
2022-11-27T10:43:25.939Z,36.08
2022-11-27T10:45:59.094Z,42.65
2022-11-27T10:48:35.495Z,32.65
2022-11-27T10:51:07.326Z,36.70
2022-11-27T10:54:06.250Z,37.92
2022-11-27T10:57:32.518Z,37.22
2022-11-27T11:08:17.645Z,41.72
2022-11-27T11:11:30.426Z,43.00
2022-11-27T11:14:01.836Z,42.95
2022-11-27T11:16:35.756Z,46.40
2022-11-27T11:19:34.199Z,41.92
2022-11-27T11:22:19.620Z,47.10
2022-11-27T11:28:36.508Z,48.17
2022-11-27T11:48:46.283Z,43.58
2022-11-27T11:57:43.023Z,45.13
2022-11-27T12:01:19.345Z,43.53
2022-11-27T12:13:30.361Z,40.63
2022-11-27T12:17:24.356Z,39.03
2022-11-27T12:20:56.089Z,40.85
2022-11-27T12:23:53.020Z,37.25
2022-11-27T12:27:52.617Z,45.53
2022-11-27T12:30:25.564Z,46.20
2022-11-27T12:33:27.721Z,43.90
2022-11-27T12:36:43.877Z,40.47
2022-11-27T12:39:26.223Z,43.75
2022-11-27T12:42:00.836Z,48.05
2022-11-27T12:45:10.049Z,40.92
2022-11-27T12:47:48.029Z,38.97
2022-11-27T12:50:41.699Z,39.58
2022-11-27T12:53:25.873Z,41.83
2022-11-27T12:56:35.023Z,44.92
2022-11-27T12:59:19.499Z,47.95
2022-11-27T13:02:47.451Z,45.50
2022-11-27T13:05:22.743Z,46.45
2022-11-27T13:08:01.572Z,44.15
2022-11-27T13:10:43.875Z,44.03
2022-11-27T13:13:18.745Z,46.70
2022-11-27T13:16:05.164Z,40.40
2022-11-27T13:18:50.153Z,47.05
2022-11-27T13:21:32.515Z,46.17
2022-11-27T13:24:06.227Z,49.97
2022-11-27T13:26:43.379Z,43.53
2022-11-27T13:29:39.671Z,44.05
2022-11-27T13:34:13.301Z,36.67
2022-11-27T13:35:43.177Z,38.28
2022-11-27T13:38:21.300Z,43.67
2022-11-27T13:40:54.943Z,41.30
2022-11-27T13:43:50.830Z,43.70
2022-11-27T13:46:26.972Z,40.58
2022-11-27T13:49:30.724Z,37.83
2022-11-27T13:52:14.849Z,39.22
2022-11-27T13:54:55.507Z,45.38
2022-11-27T13:57:26.740Z,52.28
2022-11-27T14:00:05.245Z,57.50
2022-11-27T14:02:47.079Z,54.85
2022-11-27T14:05:20.614Z,55.25
2022-11-27T14:07:52.186Z,58.92
2022-11-27T14:10:28.158Z,56.50
2022-11-27T14:13:06.657Z,55.47
2022-11-27T14:15:37.994Z,62.10
2022-11-27T14:18:23.695Z,66.32
2022-11-27T14:21:42.926Z,70.72
2022-11-27T14:24:43.971Z,70.65
2022-11-27T14:27:38.449Z,69.45
2022-11-27T14:30:42.296Z,65.75
2022-11-27T14:34:13.669Z,64.53
2022-11-27T14:36:40.767Z,59.00
2022-11-27T14:39:23.965Z,60.92
2022-11-27T14:42:08.246Z,57.30
2022-11-27T14:44:36.794Z,56.00
2022-11-27T14:47:30.519Z,54.28
2022-11-27T14:50:00.370Z,54.25
2022-11-27T14:52:29.612Z,55.30
2022-11-27T14:55:01.267Z,52.28
2022-11-27T14:57:31.282Z,79.25
2022-11-27T15:00:30.198Z,69.20
2022-11-27T15:03:11.299Z,77.85
2022-11-27T15:05:53.451Z,74.32
2022-11-27T15:08:22.393Z,87.70
2022-11-27T15:10:54.768Z,84.00
2022-11-27T15:13:41.316Z,94.20
2022-11-27T15:16:23.728Z,101.22
2022-11-27T15:18:56.468Z,117.40
2022-11-27T15:23:09.837Z,113.30
2022-11-27T15:34:07.307Z,73.43
2022-11-27T15:36:58.154Z,67.80
2022-11-27T15:39:47.051Z,95.63
2022-11-27T15:42:24.516Z,110.32
2022-11-27T15:44:58.080Z,106.50
2022-11-27T15:47:42.390Z,93.60
2022-11-27T15:50:23.873Z,90.88
2022-11-27T15:52:52.829Z,90.05
2022-11-27T15:55:21.431Z,100.85
2022-11-27T15:57:50.209Z,113.43
2022-11-27T16:00:22.329Z,125.53
2022-11-27T16:02:53.393Z,125.50
2022-11-27T16:05:22.445Z,138.98
2022-11-27T16:07:55.185Z,125.82
2022-11-27T16:10:23.933Z,144.02
2022-11-27T16:12:55.647Z,122.43
2022-11-27T16:15:25.787Z,130.45
2022-11-27T16:17:57.370Z,122.30
2022-11-27T16:20:27.053Z,112.95
2022-11-27T16:22:57.053Z,124.47
2022-11-27T16:25:25.590Z,127.22
2022-11-27T16:27:59.392Z,139.25
2022-11-27T16:30:31.697Z,148.77
2022-11-27T16:33:00.350Z,157.95
2022-11-27T16:35:29.277Z,154.85
2022-11-27T16:37:58.245Z,145.95
2022-11-27T16:40:27.623Z,150.02
2022-11-27T16:42:56.545Z,149.07
2022-11-27T16:45:24.989Z,157.45
2022-11-27T16:47:56.005Z,169.30
2022-11-27T16:50:34.224Z,152.63
2022-11-27T16:53:03.317Z,179.57
2022-11-27T16:55:32.101Z,181.15
2022-11-27T16:58:04.261Z,188.05
2022-11-27T17:00:38.627Z,211.25
2022-11-27T17:03:58.733Z,196.30
2022-11-27T17:06:32.497Z,188.73
2022-11-27T17:09:06.434Z,182.82
2022-11-27T17:11:41.168Z,204.73
2022-11-27T17:14:11.607Z,179.05
2022-11-27T17:16:41.729Z,155.35
2022-11-27T17:19:15.523Z,144.55
2022-11-27T17:22:10.035Z,145.20
2022-11-27T17:24:39.951Z,147.15
2022-11-27T17:27:09.808Z,152.88
2022-11-27T17:30:03.988Z,171.75
2022-11-27T17:32:33.055Z,168.50
2022-11-27T17:35:04.721Z,162.52
2022-11-27T17:37:33.103Z,188.10
2022-11-27T17:41:16.470Z,190.05
2022-11-27T17:43:47.637Z,185.93
2022-11-27T17:46:42.073Z,248.93
2022-11-27T17:49:38.065Z,251.23
2022-11-27T17:52:21.809Z,198.13
2022-11-27T17:54:55.689Z,280.45
2022-11-27T17:57:24.647Z,247.98
2022-11-27T18:00:19.126Z,229.38
2022-11-27T18:02:48.341Z,290.85
2022-11-27T18:05:16.953Z,228.82
2022-11-27T18:07:59.792Z,256.10
2022-11-27T18:10:33.576Z,238.98
2022-11-27T18:13:03.589Z,242.10
2022-11-27T18:15:38.625Z,297.55
2022-11-27T18:20:46.449Z,250.20
2022-11-27T18:23:15.714Z,220.88
2022-11-27T18:25:49.074Z,225.95
2022-11-27T18:28:18.710Z,232.95
2022-11-27T18:30:47.040Z,257.77
2022-11-27T18:33:17.760Z,241.60
2022-11-27T18:35:46.376Z,376.70
2022-11-27T18:38:41.900Z,262.42
2022-11-27T18:41:40.751Z,284.63
2022-11-27T18:44:15.222Z,256.30
2022-11-27T18:46:47.146Z,217.20
2022-11-27T18:51:50.482Z,232.30
2022-11-27T18:54:24.997Z,302.90
2022-11-27T18:56:55.650Z,284.10
2022-11-27T18:59:26.402Z,234.27
2022-11-27T19:01:54.828Z,250.68
2022-11-27T19:04:50.297Z,267.50
2022-11-27T19:07:18.918Z,252.82
2022-11-27T19:09:50.994Z,185.55
2022-11-27T19:12:20.200Z,169.88
2022-11-27T19:14:51.359Z,178.57
2022-11-27T19:17:21.898Z,159.43
2022-11-27T19:20:04.498Z,152.07
2022-11-27T19:22:39.500Z,171.65
2022-11-27T19:25:09.595Z,155.15
2022-11-27T19:27:38.345Z,186.70
2022-11-27T19:30:07.860Z,175.50
2022-11-27T19:32:39.336Z,201.13
2022-11-27T19:35:10.680Z,161.77
2022-11-27T19:37:47.421Z,171.40
2022-11-27T19:40:42.953Z,192.65
2022-11-27T19:44:08.137Z,156.90
2022-11-27T19:47:08.409Z,170.07
2022-11-27T19:49:44.388Z,154.82
2022-11-27T19:52:49.058Z,184.25
2022-11-27T19:55:42.501Z,145.05
2022-11-27T19:58:12.737Z,151.65
2022-11-27T20:00:49.949Z,141.35
2022-11-27T20:03:20.865Z,142.75
2022-11-27T20:05:49.539Z,175.77
2022-11-27T20:08:18.770Z,168.35
2022-11-27T20:10:50.743Z,182.35
2022-11-27T20:15:48.545Z,161.13
2022-11-27T20:18:20.568Z,156.00
2022-11-27T20:20:48.936Z,142.90
2022-11-27T20:23:17.775Z,154.20
2022-11-27T20:25:49.552Z,145.48
2022-11-27T20:31:15.097Z,151.55
2022-11-27T20:33:47.095Z,151.07
2022-11-27T20:36:23.496Z,156.93
2022-11-27T20:39:21.727Z,138.90
2022-11-27T20:43:14.461Z,148.63
2022-11-27T20:45:44.390Z,145.05
2022-11-27T20:48:14.547Z,130.63
2022-11-27T20:50:49.824Z,160.32
2022-11-27T20:53:20.035Z,142.43
2022-11-27T20:55:48.923Z,133.73
2022-11-27T20:58:44.483Z,120.32
2022-11-27T21:01:35.110Z,124.38
2022-11-27T21:04:23.223Z,139.82
2022-11-27T21:06:58.514Z,122.40
2022-11-27T21:09:27.208Z,122.15
2022-11-27T21:11:56.107Z,124.80
2022-11-27T21:14:25.700Z,130.45
2022-11-27T21:16:57.984Z,124.40
2022-11-27T21:19:28.702Z,140.70
2022-11-27T21:26:10.035Z,122.13
2022-11-27T21:28:47.544Z,122.43
2022-11-27T21:31:22.173Z,118.55
2022-11-27T21:33:56.556Z,133.32
2022-11-27T21:36:28.397Z,139.88
2022-11-27T21:38:58.928Z,136.68
2022-11-27T21:41:28.575Z,140.90
2022-11-27T21:47:58.634Z,139.27
2022-11-27T21:50:53.505Z,143.73
2022-11-27T21:53:23.792Z,136.85
2022-11-27T21:55:52.693Z,132.63
2022-11-27T21:58:47.532Z,144.60
2022-11-27T22:01:24.395Z,169.73
2022-11-27T22:05:07.515Z,147.60
2022-11-27T22:08:01.771Z,158.32
2022-11-27T22:10:29.987Z,157.90
2022-11-27T22:12:58.707Z,158.48
2022-11-27T22:15:34.582Z,159.30
2022-11-27T22:18:03.265Z,159.63
2022-11-27T22:20:31.873Z,156.05
2022-11-27T22:23:00.700Z,157.38
2022-11-27T22:25:30.941Z,155.30
2022-11-27T22:27:59.880Z,166.55
2022-11-27T22:30:28.512Z,158.73
2022-11-27T22:33:01.966Z,145.43
2022-11-27T22:35:30.523Z,169.70
2022-11-27T22:38:00.519Z,145.00
2022-11-27T22:40:29.056Z,156.43
2022-11-27T22:42:57.927Z,144.52
2022-11-27T22:45:26.406Z,150.60
2022-11-27T22:47:55.446Z,145.93
2022-11-27T22:51:13.725Z,143.43
2022-11-27T22:53:42.452Z,162.50
2022-11-27T22:56:29.443Z,171.15
2022-11-27T22:59:30.401Z,157.02
2022-11-27T23:02:16.170Z,155.63
2022-11-27T23:04:53.744Z,147.02
2022-11-27T23:07:25.447Z,156.02
2022-11-27T23:09:54.838Z,145.77
2022-11-27T23:12:23.390Z,128.07
2022-11-27T23:14:52.236Z,156.02
2022-11-27T23:17:20.443Z,132.63
2022-11-27T23:19:49.062Z,145.13
2022-11-27T23:22:19.585Z,136.50
2022-11-27T23:24:48.219Z,155.05
2022-11-27T23:27:16.774Z,148.70
2022-11-27T23:29:45.512Z,141.75
2022-11-27T23:32:13.849Z,155.40
2022-11-27T23:34:42.585Z,138.55
2022-11-27T23:37:12.198Z,148.27
2022-11-27T23:39:41.330Z,141.43
2022-11-27T23:42:10.655Z,138.52
2022-11-27T23:44:39.372Z,158.68
2022-11-27T23:47:08.105Z,127.25
2022-11-27T23:49:36.719Z,148.90
2022-11-27T23:52:05.293Z,139.95
2022-11-27T23:54:34.345Z,145.13
2022-11-27T23:57:03.702Z,148.27
2022-11-27T23:59:32.512Z,161.05
